Time;durP1;ratioP1;P1;durP2;ratioP2;P2;SDS_P1;SDS_P2;PMS_P1;PMS_P2;Temp;Humidity;BMP_temperature;BMP_pressure;BME280_temperature;BME280_humidity;BME280_pressure;Samples;Min_cycle;Max_cycle;Signal;HPM_P1;HPM_P2
2022/05/24 00:01:06;;;;;;;13.27;9.02;;;;;;;16.47;57.84;100404.13;5106805;28;20806;-68
2022/05/24 00:03:33;;;;;;;10.00;8.35;;;;;;;16.55;58.11;100411.81;5108748;28;20127;-68
2022/05/24 00:06:00;;;;;;;9.38;8.77;;;;;;;16.47;57.66;100404.13;5111842;28;20052;-67
2022/05/24 00:08:27;;;;;;;9.45;8.65;;;;;;;16.44;57.92;100399.13;5107398;27;20134;-67
2022/05/24 00:10:54;;;;;;;9.75;8.23;;;;;;;16.46;57.66;100406.13;5112972;27;20075;-68
2022/05/24 00:13:22;;;;;;;8.82;8.10;;;;;;;16.44;57.58;100393.50;5128922;27;20089;-67
2022/05/24 00:15:49;;;;;;;9.43;8.70;;;;;;;16.37;57.93;100399.59;5113759;27;20127;-67
2022/05/24 00:18:19;;;;;;;9.18;8.57;;;;;;;16.45;57.97;100406.47;5115250;27;20075;-65
2022/05/24 00:20:52;;;;;;;7.78;6.93;;;;;;;16.41;57.90;100405.41;5111636;28;20190;-67
2022/05/24 00:23:21;;;;;;;7.60;6.90;;;;;;;16.43;57.61;100408.75;5115052;28;20071;-67
2022/05/24 00:25:52;;;;;;;8.93;8.23;;;;;;;16.41;57.47;100399.78;5121574;27;20494;-67
2022/05/24 00:28:22;;;;;;;9.30;8.60;;;;;;;16.43;57.70;100403.94;5114056;27;20071;-66
2022/05/24 00:30:49;;;;;;;9.20;8.30;;;;;;;16.34;57.40;100403.91;5117721;27;20455;-66
2022/05/24 00:33:17;;;;;;;8.02;7.45;;;;;;;16.20;57.31;100376.97;5112029;27;20540;-66
2022/05/24 00:35:45;;;;;;;9.18;8.48;;;;;;;16.25;57.61;100390.91;5113959;28;20126;-67
2022/05/24 00:38:19;;;;;;;13.07;7.47;;;;;;;16.33;57.54;100410.69;5120724;27;20047;-66
2022/05/24 00:40:46;;;;;;;8.10;7.40;;;;;;;16.32;57.47;100414.66;5123579;27;20047;-67
2022/05/24 00:43:31;;;;;;;10.43;9.65;;;;;;;16.32;57.27;100406.22;5129744;27;20205;-67
2022/05/24 00:46:07;;;;;;;7.53;7.03;;;;;;;16.23;57.63;100385.59;5113183;27;20074;-69
2022/05/24 00:48:38;;;;;;;7.47;6.97;;;;;;;16.32;57.36;100396.94;5115560;27;20410;-68
2022/05/24 00:51:10;;;;;;;7.70;7.20;;;;;;;16.04;57.38;100362.47;5098933;27;20138;-69
2022/05/24 00:53:48;;;;;;;9.93;7.10;;;;;;;16.23;57.33;100390.41;5124029;27;20604;-69
2022/05/24 00:56:38;;;;;;;7.93;7.33;;;;;;;16.13;57.62;100374.59;5113968;27;20083;-68
2022/05/24 00:59:08;;;;;;;7.70;7.03;;;;;;;16.16;57.50;100362.69;5113389;27;20052;-68
2022/05/24 01:01:40;;;;;;;8.35;7.53;;;;;;;16.26;57.72;100390.59;5104581;28;20056;-72
2022/05/24 01:04:11;;;;;;;12.77;8.10;;;;;;;16.23;57.87;100390.41;5141452;27;20048;-69
2022/05/24 01:06:38;;;;;;;8.85;8.10;;;;;;;16.22;57.54;100392.38;5114034;28;20104;-70
2022/05/24 01:09:13;;;;;;;7.72;7.32;;;;;;;16.21;57.15;100389.91;5114045;27;20082;-69
2022/05/24 01:11:45;;;;;;;8.68;8.18;;;;;;;16.01;57.65;100363.09;5106738;27;20130;-69
2022/05/24 01:14:15;;;;;;;8.00;7.30;;;;;;;16.17;57.84;100383.22;5108957;28;20395;-69
2022/05/24 01:16:42;;;;;;;10.45;8.43;;;;;;;16.11;57.88;100385.38;5109804;27;20612;-71
2022/05/24 01:19:17;;;;;;;8.05;7.35;;;;;;;16.10;58.05;100387.38;5113987;27;20097;-71
2022/05/24 01:21:45;;;;;;;7.93;7.27;;;;;;;16.00;58.08;100379.19;5110241;28;20126;-72
2022/05/24 01:24:25;;;;;;;7.75;7.13;;;;;;;16.05;57.86;100386.66;5114519;27;20067;-73
2022/05/24 01:26:54;;;;;;;;;;;;;;;15.89;57.92;100383.38;5110677;27;20067;-71
2022/05/24 01:29:23;;;;;;;9.35;8.45;;;;;;;16.01;58.09;100377.19;5114059;28;19920;-71
2022/05/24 01:37:23;;;;;;;8.25;7.45;;;;;;;15.98;57.81;100363.75;5112902;28;20135;-72
2022/05/24 01:39:54;;;;;;;9.70;8.10;;;;;;;15.99;57.92;100348.50;5112874;27;20968;-72
2022/05/24 01:42:22;;;;;;;7.85;7.15;;;;;;;16.04;57.47;100351.19;5114386;28;20512;-70
2022/05/24 01:45:03;;;;;;;8.77;7.93;;;;;;;15.99;57.38;100332.44;5114313;28;20141;-70
2022/05/24 01:47:32;;;;;;;8.77;8.15;;;;;;;16.04;57.17;100342.75;5113340;28;20139;-69
2022/05/24 01:50:06;;;;;;;9.52;8.73;;;;;;;16.05;57.20;100336.78;5115199;27;20122;-70
2022/05/24 01:52:43;;;;;;;9.90;9.03;;;;;;;16.01;57.44;100332.13;5111256;27;20086;-69
2022/05/24 01:55:25;;;;;;;9.13;8.33;;;;;;;15.97;57.60;100322.66;5110685;28;20079;-68
2022/05/24 01:57:56;;;;;;;8.75;8.07;;;;;;;15.95;57.81;100317.34;5109221;28;20138;-69
2022/05/24 02:00:23;;;;;;;9.00;8.50;;;;;;;15.87;57.57;100292.78;5113073;28;20138;-69
2022/05/24 02:02:50;;;;;;;8.30;7.60;;;;;;;15.86;57.22;100277.88;5112770;28;20163;-69
2022/05/24 02:05:34;;;;;;;10.77;10.10;;;;;;;15.98;57.37;100307.41;5113164;27;20051;-70
2022/05/24 02:08:03;;;;;;;9.87;9.10;;;;;;;15.98;57.40;100290.53;5110879;27;20075;-68
2022/05/24 02:10:38;;;;;;;9.67;8.83;;;;;;;15.95;57.25;100286.34;5111786;28;20096;-69
2022/05/24 02:13:07;;;;;;;9.05;8.35;;;;;;;16.05;57.27;100297.34;5114465;27;20126;-68
2022/05/24 02:15:37;;;;;;;10.10;8.95;;;;;;;16.01;57.07;100295.50;5109969;28;20083;-68
2022/05/24 02:18:09;;;;;;;9.67;8.80;;;;;;;16.00;57.53;100297.50;5102916;28;20143;-69
2022/05/24 02:20:39;;;;;;;9.73;8.93;;;;;;;15.90;57.29;100283.69;5109942;27;20130;-68
2022/05/24 02:23:07;;;;;;;8.80;8.20;;;;;;;15.80;57.77;100290.44;5111208;28;20039;-68
2022/05/24 02:25:43;;;;;;;9.20;8.55;;;;;;;15.93;57.63;100299.09;5112907;27;20080;-68
2022/05/24 02:28:11;;;;;;;9.13;8.35;;;;;;;15.87;57.56;100279.53;5106225;28;20134;-68
2022/05/24 02:30:50;;;;;;;9.15;8.45;;;;;;;15.99;57.88;100304.25;5109314;28;20071;-72
2022/05/24 02:33:18;;;;;;;9.17;8.57;;;;;;;15.95;57.42;100302.44;5106557;28;20126;-72
2022/05/24 02:35:44;;;;;;;8.77;8.07;;;;;;;15.96;57.76;100315.34;5112312;27;20105;-70
2022/05/24 02:38:11;;;;;;;9.75;8.95;;;;;;;15.95;57.77;100310.88;5113615;27;20121;-69
2022/05/24 02:43:24;;;;;;;9.68;8.88;;;;;;;15.96;57.67;100313.34;5112961;28;20108;-69
2022/05/24 02:45:51;;;;;;;9.57;8.75;;;;;;;15.95;57.49;100302.44;5107796;27;20055;-69
2022/05/24 02:48:19;;;;;;;8.52;7.97;;;;;;;15.98;57.75;100316.69;5114593;27;20058;-69
2022/05/24 02:50:46;;;;;;;9.32;8.43;;;;;;;15.94;57.90;100307.22;5113464;28;20086;-69
2022/05/24 02:53:13;;;;;;;9.93;9.15;;;;;;;15.96;57.77;100309.72;5112739;28;20047;-68
2022/05/24 02:55:39;;;;;;;8.60;8.00;;;;;;;15.75;57.93;100282.09;5112465;28;20130;-70
2022/05/24 02:58:07;;;;;;;9.27;8.60;;;;;;;15.93;58.05;100308.41;5112308;28;20138;-69
2022/05/24 03:00:34;;;;;;;11.00;9.35;;;;;;;15.90;58.18;100309.03;5139875;27;20079;-68
2022/05/24 03:03:01;;;;;;;9.00;8.18;;;;;;;15.70;58.21;100284.22;5110912;28;20087;-69
2022/05/24 03:05:29;;;;;;;10.52;8.52;;;;;;;15.83;57.91;100317.13;5111175;27;20057;-69
2022/05/24 03:10:42;;;;;;;10.32;9.23;;;;;;;15.86;57.58;100316.44;5112268;28;20091;-69
2022/05/24 03:15:55;;;;;;;9.10;8.13;;;;;;;15.75;57.83;100315.06;5112628;28;20051;-70
2022/05/24 03:18:24;;;;;;;10.50;9.30;;;;;;;15.68;57.87;100321.13;5112784;28;20055;-67
2022/05/24 03:20:51;;;;;;;8.80;8.20;;;;;;;15.55;57.87;100310.75;5108452;28;20627;-68
2022/05/24 03:23:18;;;;;;;16.23;8.90;;;;;;;15.69;57.93;100333.22;5109874;28;20292;-69
2022/05/24 03:25:45;;;;;;;8.48;7.88;;;;;;;15.51;57.73;100321.81;5113748;28;20097;-69
2022/05/24 03:28:12;;;;;;;8.97;8.03;;;;;;;15.60;57.78;100335.97;5114065;28;20044;-70
2022/05/24 03:30:44;;;;;;;8.77;7.90;;;;;;;15.53;57.69;100329.94;5109110;28;20127;-72
2022/05/24 03:33:11;;;;;;;8.97;8.30;;;;;;;15.45;57.74;100337.16;5108223;28;20135;-69
2022/05/24 03:35:39;;;;;;;10.57;8.53;;;;;;;15.56;57.68;100344.22;5111030;28;20071;-67
2022/05/24 03:38:06;;;;;;;8.50;7.88;;;;;;;15.59;57.81;100363.28;5111892;28;20079;-70
2022/05/24 03:40:34;;;;;;;13.23;8.60;;;;;;;15.54;57.56;100365.38;5110577;28;20084;-70
2022/05/24 03:43:01;;;;;;;9.33;8.63;;;;;;;15.51;57.98;100366.00;5117039;27;20082;-70
2022/05/24 03:45:29;;;;;;;9.17;8.40;;;;;;;15.31;57.63;100345.63;5111012;28;20047;-70
2022/05/24 03:47:56;;;;;;;10.07;9.07;;;;;;;15.35;57.85;100363.56;5112897;27;20055;-70
2022/05/24 03:50:23;;;;;;;9.37;8.70;;;;;;;15.32;58.23;100363.38;5116845;27;20134;-69
2022/05/24 03:52:50;;;;;;;8.80;8.23;;;;;;;15.14;58.10;100331.41;5116052;28;20140;-69
2022/05/24 03:55:17;;;;;;;9.30;8.40;;;;;;;15.20;58.23;100337.75;5116508;28;20134;-68
2022/05/24 03:58:02;;;;;;;9.57;8.07;;;;;;;15.34;58.25;100361.06;5113897;27;20082;-67
2022/05/24 04:00:31;;;;;;;8.73;8.03;;;;;;;15.35;58.39;100362.72;5113685;27;20099;-68
2022/05/24 04:02:59;;;;;;;10.37;8.43;;;;;;;15.38;57.90;100368.56;5113903;28;20458;-68
2022/05/24 04:05:27;;;;;;;8.93;8.13;;;;;;;15.31;57.87;100351.25;5110639;28;20448;-69
2022/05/24 04:07:54;;;;;;;8.77;8.17;;;;;;;15.25;57.94;100352.56;5115092;28;20078;-68
2022/05/24 04:10:21;;;;;;;10.63;7.83;;;;;;;15.14;58.01;100335.09;5111353;27;20138;-69
2022/05/24 04:12:48;;;;;;;11.63;8.20;;;;;;;15.24;58.13;100350.88;5112855;27;20086;-68
2022/05/24 04:15:16;;;;;;;8.13;7.43;;;;;;;15.32;58.11;100364.19;5113803;27;20070;-68
2022/05/24 04:17:43;;;;;;;8.05;7.45;;;;;;;15.17;58.15;100342.88;5115528;27;20101;-69
2022/05/24 04:20:10;;;;;;;8.63;7.82;;;;;;;15.24;58.43;100352.84;5105759;27;20135;-68
2022/05/24 04:22:37;;;;;;;9.03;8.23;;;;;;;15.13;58.55;100355.06;5110218;28;20514;-68
2022/05/24 04:25:05;;;;;;;7.87;7.27;;;;;;;15.21;58.73;100376.81;5114011;28;20043;-68
2022/05/24 04:27:32;;;;;;;8.50;7.70;;;;;;;15.13;58.88;100377.56;5112638;27;20135;-68
2022/05/24 04:29:59;;;;;;;8.57;8.07;;;;;;;15.16;58.52;100346.00;5112607;28;20134;-66
2022/05/24 04:32:26;;;;;;;9.73;8.90;;;;;;;15.07;58.63;100336.66;5145063;27;20052;-68
2022/05/24 04:34:53;;;;;;;10.97;10.07;;;;;;;15.18;58.74;100354.97;5115355;28;20147;-68
2022/05/24 04:37:20;;;;;;;9.13;8.30;;;;;;;15.05;58.64;100324.91;5113690;27;20040;-68
2022/05/24 04:39:47;;;;;;;8.63;8.13;;;;;;;15.23;58.52;100352.03;5110691;27;20064;-68
2022/05/24 04:42:20;;;;;;;8.90;8.13;;;;;;;15.12;58.47;100347.78;5110310;28;20129;-68
2022/05/24 04:44:58;;;;;;;8.53;7.70;;;;;;;15.25;58.52;100357.34;5112268;27;20078;-68
2022/05/24 04:47:28;;;;;;;7.93;7.33;;;;;;;15.29;58.43;100364.84;5106566;28;20615;-68
2022/05/24 04:50:00;;;;;;;8.50;7.85;;;;;;;15.31;58.10;100367.31;5112287;27;20067;-68
2022/05/24 04:52:33;;;;;;;8.82;8.10;;;;;;;15.25;57.95;100346.09;5113763;27;20055;-68
2022/05/24 04:55:03;;;;;;;7.93;7.47;;;;;;;15.29;57.97;100347.13;5109688;27;20131;-66
2022/05/24 04:57:30;;;;;;;8.30;7.80;;;;;;;15.33;57.94;100368.66;5113950;28;20078;-66
2022/05/24 04:59:56;;;;;;;8.87;8.17;;;;;;;15.13;58.26;100343.81;5112149;27;20130;-67
2022/05/24 05:02:24;;;;;;;8.23;7.83;;;;;;;15.05;58.42;100328.53;5114294;27;20130;-68
2022/05/24 05:04:52;;;;;;;9.50;8.47;;;;;;;15.17;58.02;100337.25;5113199;28;20123;-67
2022/05/24 05:07:19;;;;;;;10.20;9.27;;;;;;;15.23;58.03;100359.63;5112239;27;20138;-66
2022/05/24 05:09:50;;;;;;;9.10;8.40;;;;;;;15.20;58.21;100344.22;5113977;28;20122;-70
2022/05/24 05:12:18;;;;;;;9.90;9.00;;;;;;;14.86;58.41;100289.31;5113428;27;20518;-70
2022/05/24 05:14:45;;;;;;;10.03;9.03;;;;;;;15.12;58.37;100330.91;5111265;28;20056;-68
2022/05/24 05:17:12;;;;;;;10.63;9.90;;;;;;;15.14;58.56;100348.28;5113774;28;20048;-66
2022/05/24 05:19:39;;;;;;;9.33;8.73;;;;;;;15.14;58.54;100354.78;5113678;28;20083;-65
2022/05/24 05:22:07;;;;;;;9.27;8.43;;;;;;;15.15;58.41;100359.25;5103456;27;20055;-67
2022/05/24 05:24:35;;;;;;;10.03;9.03;;;;;;;14.98;58.44;100319.72;5113967;27;20051;-67
2022/05/24 05:27:04;;;;;;;9.23;8.40;;;;;;;15.01;58.67;100323.84;5114782;27;20130;-68
2022/05/24 05:32:29;;;;;;;8.43;7.67;;;;;;;15.05;58.34;100314.47;5115841;27;20043;-68
2022/05/24 05:34:57;;;;;;;9.07;8.10;;;;;;;15.20;58.45;100332.13;5108761;28;20044;-69
2022/05/24 05:37:28;;;;;;;9.00;8.20;;;;;;;15.25;57.92;100324.44;5111816;28;20079;-69
2022/05/24 05:40:01;;;;;;;8.55;7.75;;;;;;;15.30;57.80;100332.72;5113283;27;20187;-68
2022/05/24 05:42:28;;;;;;;9.90;9.02;;;;;;;15.31;58.10;100340.00;5111415;28;20127;-68
2022/05/24 05:44:55;;;;;;;9.37;8.67;;;;;;;15.23;58.00;100318.28;5104972;28;20071;-68
2022/05/24 05:47:22;;;;;;;10.90;10.20;;;;;;;15.34;57.95;100350.63;5110344;27;20126;-68
2022/05/24 05:49:49;;;;;;;10.00;9.03;;;;;;;15.34;58.21;100350.63;5107018;28;20086;-68
2022/05/24 05:52:16;;;;;;;11.87;10.87;;;;;;;15.33;58.21;100350.97;5108814;28;20430;-68
2022/05/24 05:54:42;;;;;;;9.83;8.80;;;;;;;15.32;58.45;100346.50;5110571;28;20521;-67
2022/05/24 05:57:11;;;;;;;9.02;8.48;;;;;;;15.31;58.19;100356.06;5099344;28;20498;-68
2022/05/24 05:59:38;;;;;;;8.95;8.23;;;;;;;15.46;58.00;100392.31;5111387;28;20070;-68
2022/05/24 06:02:07;;;;;;;11.93;8.82;;;;;;;15.57;57.91;100395.69;5107635;28;20122;-68
2022/05/24 06:04:35;;;;;;;9.37;8.57;;;;;;;15.62;57.74;100395.56;5107152;27;20134;-68
2022/05/24 06:07:03;;;;;;;9.23;8.52;;;;;;;15.65;57.47;100378.03;5113330;28;20098;-68
2022/05/24 06:09:30;;;;;;;11.38;10.68;;;;;;;15.86;57.18;100389.66;5104671;28;20147;-68
2022/05/24 06:11:59;;;;;;;12.30;8.48;;;;;;;15.94;57.31;100391.72;5112103;28;20075;-68
2022/05/24 06:14:26;;;;;;;10.50;9.90;;;;;;;15.97;56.84;100393.06;5106001;28;20105;-68
2022/05/24 06:17:14;;;;;;;8.93;8.43;;;;;;;16.17;57.13;100423.53;5111528;27;20043;-68
2022/05/24 06:19:41;;;;;;;9.65;8.77;;;;;;;16.34;56.54;100425.59;5103825;27;20146;-67
2022/05/24 06:22:08;;;;;;;11.50;10.40;;;;;;;16.53;56.10;100408.47;5113173;28;20075;-67
2022/05/24 06:24:35;;;;;;;9.40;8.77;;;;;;;16.63;56.16;100413.81;5110359;27;20523;-67
2022/05/24 06:27:02;;;;;;;11.65;10.85;;;;;;;16.55;55.82;100384.44;5113317;28;20079;-67
2022/05/24 06:29:32;;;;;;;9.18;8.50;;;;;;;16.71;55.90;100398.94;5104388;27;20566;-67
2022/05/24 06:32:01;;;;;;;8.70;8.00;;;;;;;16.75;55.82;100402.81;5109202;27;20631;-67
2022/05/24 06:34:32;;;;;;;9.32;8.60;;;;;;;16.78;56.01;100402.13;5111126;27;20046;-67
2022/05/24 06:36:59;;;;;;;9.32;8.40;;;;;;;16.85;55.47;100414.94;5106695;28;20085;-67
2022/05/24 06:39:27;;;;;;;9.13;8.63;;;;;;;16.66;55.45;100367.25;5106465;27;20536;-68
2022/05/24 06:41:58;;;;;;;11.25;10.35;;;;;;;17.21;55.13;100438.13;5113156;27;20063;-68
2022/05/24 06:44:25;;;;;;;10.18;9.48;;;;;;;17.30;54.82;100432.50;5106497;27;20130;-68
2022/05/24 06:46:52;;;;;;;11.65;10.88;;;;;;;17.28;54.59;100430.00;5106381;27;20074;-68
2022/05/24 06:49:19;;;;;;;10.30;9.60;;;;;;;17.43;54.55;100448.44;5114679;27;20078;-68
2022/05/24 06:51:46;;;;;;;11.15;10.35;;;;;;;17.41;54.64;100441.50;5106524;28;20118;-68
2022/05/24 06:54:12;;;;;;;9.60;9.00;;;;;;;17.42;54.65;100445.97;5112382;28;20143;-67
2022/05/24 06:56:39;;;;;;;11.98;11.18;;;;;;;17.42;54.32;100441.16;5111515;28;20132;-67
2022/05/24 07:02:25;;;;;;;8.48;7.88;;;;;;;17.39;54.79;100443.81;5092747;28;20079;-68
2022/05/24 07:04:44;;;;;;;10.25;9.75;;;;;;;17.41;54.35;100441.50;5106915;28;20546;-67
2022/05/24 07:07:12;;;;;;;9.88;8.90;;;;;;;17.54;54.33;100434.88;5113053;28;20061;-66
2022/05/24 07:09:40;;;;;;;9.93;9.32;;;;;;;17.68;54.01;100449.66;5112966;28;20131;-66
2022/05/24 07:12:08;;;;;;;9.82;8.90;;;;;;;17.87;53.59;100457.00;5105711;28;20145;-67
2022/05/24 07:14:35;;;;;;;9.73;9.23;;;;;;;17.97;53.32;100453.84;5106972;27;20169;-67
2022/05/24 07:17:03;;;;;;;10.57;9.80;;;;;;;18.02;53.42;100466.97;5119884;27;20126;-68
2022/05/24 07:19:32;;;;;;;11.70;10.80;;;;;;;17.92;53.20;100434.25;5119975;27;20111;-68
2022/05/24 07:21:59;;;;;;;9.50;8.80;;;;;;;17.85;53.07;100448.06;5118584;27;20177;-67
2022/05/24 07:24:27;;;;;;;9.88;8.98;;;;;;;17.90;53.25;100456.34;5115173;28;20057;-67
2022/05/24 07:26:54;;;;;;;8.88;8.23;;;;;;;17.89;53.05;100460.34;5117563;27;20139;-67
2022/05/24 07:29:22;;;;;;;8.73;8.23;;;;;;;17.90;52.64;100468.47;5119240;28;20126;-67
2022/05/24 07:31:49;;;;;;;8.60;8.10;;;;;;;17.84;52.71;100457.66;5140011;27;20122;-67
2022/05/24 07:34:16;;;;;;;8.82;8.02;;;;;;;17.98;52.87;100455.50;5112111;27;20058;-68
2022/05/24 07:36:43;;;;;;;7.82;7.40;;;;;;;17.94;52.58;100472.28;5113568;27;20071;-66
2022/05/24 07:39:10;;;;;;;8.43;7.82;;;;;;;18.02;52.75;100462.19;5114996;27;20131;-66
2022/05/24 07:47:29;;;;;;;12.23;8.73;;;;;;;18.22;52.23;100464.31;5113865;27;20049;-67
2022/05/24 07:49:57;;;;;;;9.52;8.70;;;;;;;18.31;52.07;100474.78;5113888;27;20460;-67
2022/05/24 07:52:25;;;;;;;9.77;9.18;;;;;;;18.33;51.96;100476.13;5109210;28;20472;-67
2022/05/24 07:54:52;;;;;;;11.05;10.10;;;;;;;18.16;51.98;100454.34;5116054;27;20134;-67
2022/05/24 07:57:20;;;;;;;9.00;8.27;;;;;;;18.26;51.78;100458.84;5112119;27;20172;-67
2022/05/24 07:59:50;;;;;;;10.48;9.68;;;;;;;18.56;51.56;100490.03;5115083;28;20048;-67
2022/05/24 08:02:19;;;;;;;10.20;9.45;;;;;;;18.59;51.49;100461.91;5109732;27;20125;-67
2022/05/24 08:04:46;;;;;;;9.23;8.52;;;;;;;18.63;51.39;100460.09;5115113;28;20478;-68
2022/05/24 08:07:13;;;;;;;8.30;7.90;;;;;;;18.79;51.14;100487.84;5117999;28;20079;-68
2022/05/24 08:09:40;;;;;;;10.32;8.93;;;;;;;18.84;51.11;100476.34;5115735;27;20136;-67
2022/05/24 08:12:07;;;;;;;12.23;11.27;;;;;;;18.59;51.07;100439.28;5113815;27;20093;-68
2022/05/24 08:14:34;;;;;;;8.70;8.10;;;;;;;18.79;50.81;100468.88;5116919;28;20051;-67
2022/05/24 08:17:01;;;;;;;9.68;8.93;;;;;;;18.70;50.80;100457.56;5117129;27;20079;-68
2022/05/24 08:19:31;;;;;;;9.80;8.90;;;;;;;18.70;51.14;100468.88;5117487;27;20145;-67
2022/05/24 08:21:58;;;;;;;9.32;8.63;;;;;;;18.80;50.89;100484.66;5115608;27;20135;-67
2022/05/24 08:24:25;;;;;;;10.10;9.05;;;;;;;18.83;50.84;100488.81;5116723;27;20679;-68
2022/05/24 08:26:52;;;;;;;7.90;7.28;;;;;;;18.55;50.83;100446.78;5113432;27;20120;-67
2022/05/24 08:29:19;;;;;;;8.13;7.45;;;;;;;18.78;50.50;100477.72;5111333;27;20131;-67
2022/05/24 08:31:45;;;;;;;8.50;7.43;;;;;;;18.62;50.52;100466.06;5108375;27;20127;-68
2022/05/24 08:34:14;;;;;;;9.80;8.88;;;;;;;18.66;50.59;100486.84;5112386;28;20062;-68
2022/05/24 08:36:41;;;;;;;9.20;8.48;;;;;;;18.58;50.73;100480.03;5141417;27;20439;-67
2022/05/24 08:39:08;;;;;;;8.68;8.05;;;;;;;18.68;50.55;100488.19;5111366;27;20483;-67
2022/05/24 08:42:04;;;;;;;9.23;8.48;;;;;;;18.30;50.68;100447.69;5112988;28;20138;-67
2022/05/24 08:50:34;;;;;;;8.77;8.23;;;;;;;18.76;50.52;100502.66;5113600;27;20121;-67
2022/05/24 08:53:05;;;;;;;8.77;8.00;;;;;;;18.84;50.12;100504.66;5112539;28;20142;-68
2022/05/24 08:55:39;;;;;;;8.57;7.88;;;;;;;18.93;50.00;100500.59;5108648;27;20048;-67
2022/05/24 08:58:14;;;;;;;8.90;8.30;;;;;;;18.82;50.13;100464.53;5111616;27;20075;-68
2022/05/24 09:00:42;;;;;;;9.57;8.68;;;;;;;19.26;49.77;100507.66;5109459;27;20138;-67
2022/05/24 09:03:10;;;;;;;8.00;7.40;;;;;;;19.33;49.67;100497.44;5111321;28;20159;-67
2022/05/24 09:05:40;;;;;;;8.52;7.68;;;;;;;19.53;49.44;100498.66;5115196;27;20047;-68
2022/05/24 09:08:12;;;;;;;9.30;8.55;;;;;;;19.67;49.53;100501.28;5113332;28;20578;-69
2022/05/24 09:10:48;;;;;;;8.70;8.15;;;;;;;19.77;49.56;100495.22;5112043;27;20083;-67
2022/05/24 09:13:36;;;;;;;10.57;10.07;;;;;;;19.89;49.26;100491.59;5109481;27;20089;-68
2022/05/24 09:16:10;;;;;;;9.88;8.18;;;;;;;19.87;49.27;100488.31;5108797;27;20083;-67
2022/05/24 09:18:55;;;;;;;9.73;9.23;;;;;;;20.06;49.28;100504.81;5110709;28;20422;-68
2022/05/24 09:21:31;;;;;;;8.27;7.70;;;;;;;20.06;48.93;100491.47;5109524;28;20166;-67
2022/05/24 09:24:31;;;;;;;8.27;7.63;;;;;;;20.16;49.13;100507.25;5105142;28;20185;-67
2022/05/24 09:27:07;;;;;;;8.43;7.80;;;;;;;20.16;48.86;100495.91;5107856;27;20094;-67
2022/05/24 09:29:50;;;;;;;8.73;8.00;;;;;;;20.21;48.51;100497.72;5112301;28;20454;-67
2022/05/24 09:32:48;;;;;;;10.95;7.50;;;;;;;20.22;48.62;100513.53;5110037;28;20075;-67
2022/05/24 09:35:22;;;;;;;8.13;7.43;;;;;;;20.33;48.73;100509.09;5109327;28;20052;-67
2022/05/24 09:38:04;;;;;;;8.10;7.47;;;;;;;20.34;48.29;100505.94;5110187;28;20151;-68
2022/05/24 09:41:08;;;;;;;9.40;8.70;;;;;;;20.12;48.56;100484.41;5109051;28;20171;-67
2022/05/24 09:43:39;;;;;;;8.43;7.55;;;;;;;20.16;48.26;100489.41;5106111;28;20473;-68
2022/05/24 09:46:11;;;;;;;7.65;7.10;;;;;;;20.14;47.70;100515.28;5110146;27;20044;-68
2022/05/24 09:48:59;;;;;;;9.57;8.68;;;;;;;20.08;47.84;100500.47;5109960;27;20420;-68
2022/05/24 09:51:41;;;;;;;8.00;7.15;;;;;;;20.18;47.72;100509.75;5106554;28;20122;-67
2022/05/24 09:54:24;;;;;;;8.85;8.05;;;;;;;20.43;47.51;100508.66;5110312;28;20510;-67
2022/05/24 09:57:10;;;;;;;10.38;9.68;;;;;;;20.74;47.15;100505.38;5107858;28;20146;-67
2022/05/24 09:59:41;;;;;;;8.18;7.68;;;;;;;20.96;46.74;100501.28;5106489;27;20213;-66
2022/05/24 10:02:27;;;;;;;9.80;9.02;;;;;;;20.97;46.14;100499.28;5108434;27;20521;-68
2022/05/24 10:04:54;;;;;;;8.20;7.65;;;;;;;20.74;45.59;100508.22;5104694;28;20051;-68
2022/05/24 10:07:35;;;;;;;7.90;7.20;;;;;;;20.52;45.53;100497.28;5104883;28;20066;-67
2022/05/24 10:10:19;;;;;;;8.05;7.35;;;;;;;20.42;45.57;100498.50;5108636;28;20109;-67
2022/05/24 10:13:39;;;;;;;7.82;7.32;;;;;;;20.39;45.91;100493.53;5105953;27;20051;-68
2022/05/24 10:16:18;;;;;;;9.82;9.23;;;;;;;20.61;45.26;100500.00;5098138;27;20134;-68
2022/05/24 10:19:30;;;;;;;7.22;6.47;;;;;;;20.54;45.13;100494.91;5104119;27;20044;-68
2022/05/24 10:22:15;;;;;;;7.20;6.70;;;;;;;20.73;45.12;100491.53;5085274;28;20669;-72
2022/05/24 10:25:00;;;;;;;8.10;7.50;;;;;;;20.86;44.50;100481.88;5107510;28;20137;-68
2022/05/24 10:27:36;;;;;;;7.72;7.30;;;;;;;21.06;43.79;100500.00;5106934;28;20146;-68
2022/05/24 10:30:19;;;;;;;9.98;9.38;;;;;;;21.35;43.68;100503.84;5105620;28;20143;-68
2022/05/24 10:39:31;;;;;;;8.40;7.65;;;;;;;21.64;43.89;100499.91;5020174;28;20065;-68
2022/05/24 10:42:04;;;;;;;8.85;7.88;;;;;;;21.76;43.92;100506.41;5059458;28;20142;-68
2022/05/24 10:44:37;;;;;;;9.13;7.65;;;;;;;21.75;43.52;100487.72;5103156;27;20048;-68
2022/05/24 10:47:27;;;;;;;8.77;8.18;;;;;;;21.93;43.58;100493.94;5105601;27;20130;-67
2022/05/24 10:50:30;;;;;;;9.43;8.80;;;;;;;22.36;43.20;100488.72;5097248;28;20044;-68
2022/05/24 10:53:47;;;;;;;9.07;8.38;;;;;;;22.59;43.39;100497.53;5138572;27;20075;-68
2022/05/24 10:56:23;;;;;;;8.88;8.18;;;;;;;22.59;43.21;100508.91;5107080;28;20089;-67
2022/05/24 10:58:52;;;;;;;8.02;7.43;;;;;;;22.47;42.65;100499.25;5108005;28;20087;-67
2022/05/24 11:01:32;;;;;;;9.13;8.23;;;;;;;22.40;43.07;100512.44;5106802;28;20139;-68
2022/05/24 11:04:09;;;;;;;7.80;7.30;;;;;;;22.51;42.47;100501.38;5108832;28;20097;-68
2022/05/24 11:06:40;;;;;;;8.82;8.15;;;;;;;22.57;42.16;100505.63;5106422;28;20669;-68
2022/05/24 11:09:18;;;;;;;8.63;8.02;;;;;;;22.49;42.14;100510.25;5110184;28;20470;-68
2022/05/24 11:11:45;;;;;;;8.43;7.93;;;;;;;22.36;41.91;100518.03;5102673;28;20118;-69
2022/05/24 11:14:34;;;;;;;11.15;10.15;;;;;;;22.18;41.97;100511.78;5106668;28;20051;-68
2022/05/24 11:17:02;;;;;;;;;;;;;;;21.95;43.18;100502.97;5107600;28;20082;-68
2022/05/24 11:19:35;;;;;;;9.07;8.48;;;;;;;22.07;42.89;100509.78;5109287;28;20445;-68
2022/05/24 11:22:34;;;;;;;9.60;9.07;;;;;;;22.04;42.19;100507.66;5106528;28;20097;-68
2022/05/24 11:25:17;;;;;;;11.15;10.10;;;;;;;21.86;42.23;100509.97;5104573;28;20116;-67
2022/05/24 11:27:50;;;;;;;8.18;7.13;;;;;;;21.86;42.08;100512.81;5106961;28;20112;-68
2022/05/24 11:30:26;;;;;;;7.65;7.03;;;;;;;21.76;42.02;100511.28;5108799;28;20506;-67
2022/05/24 11:33:05;;;;;;;9.02;7.35;;;;;;;21.39;42.25;100497.09;5107497;28;20083;-68
2022/05/24 11:35:40;;;;;;;7.85;7.05;;;;;;;21.29;42.42;100515.38;5109795;28;20138;-68
2022/05/24 11:38:22;;;;;;;7.88;7.20;;;;;;;21.17;42.70;100528.78;5102524;28;20203;-67
2022/05/24 11:40:54;;;;;;;10.98;9.98;;;;;;;21.28;42.88;100529.97;5110161;28;20075;-67
2022/05/24 11:43:39;;;;;;;10.13;9.27;;;;;;;21.65;42.88;100510.13;5110125;28;20083;-68
2022/05/24 11:46:09;;;;;;;8.68;7.85;;;;;;;21.67;42.38;100516.25;5100137;28;20097;-67
2022/05/24 11:48:38;;;;;;;9.57;8.63;;;;;;;21.90;42.42;100525.94;5106491;28;20391;-67
2022/05/24 11:51:26;;;;;;;9.43;8.68;;;;;;;21.70;42.67;100524.06;5108682;28;20105;-67
2022/05/24 11:53:53;;;;;;;7.95;7.22;;;;;;;21.44;42.25;100536.63;5110041;28;20135;-67
2022/05/24 11:56:21;;;;;;;11.77;8.40;;;;;;;21.01;42.85;100518.09;5107096;28;20058;-68
2022/05/24 11:58:51;;;;;;;9.93;9.00;;;;;;;20.80;43.12;100515.31;5111628;28;20142;-68
2022/05/24 12:01:19;;;;;;;10.27;9.70;;;;;;;20.67;43.17;100527.81;5106116;28;20323;-69
2022/05/24 12:10:11;;;;;;;8.00;7.40;;;;;;;20.32;43.43;100511.09;5115229;28;20139;-70
2022/05/24 12:13:04;;;;;;;9.40;8.73;;;;;;;20.12;43.40;100507.09;5111181;28;20043;-68
2022/05/24 12:15:31;;;;;;;7.95;7.35;;;;;;;20.82;42.77;100524.34;5075780;27;20048;-68
2022/05/24 12:17:57;;;;;;;9.10;8.40;;;;;;;21.14;42.72;100526.63;5114865;27;20590;-68
2022/05/24 12:20:33;;;;;;;9.50;8.18;;;;;;;21.97;41.68;100516.81;5112133;28;20112;-68
2022/05/24 12:23:32;;;;;;;8.75;8.20;;;;;;;22.56;40.98;100515.31;5110982;28;20577;-68
2022/05/24 12:26:07;;;;;;;8.82;8.23;;;;;;;23.06;40.71;100511.88;5110997;28;20078;-68
2022/05/24 12:28:34;;;;;;;8.25;7.70;;;;;;;24.60;38.28;100518.38;5114320;28;20584;-68
2022/05/24 12:31:25;;;;;;;9.30;8.65;;;;;;;24.72;37.84;100501.09;5111904;27;20134;-68